sensor_id;sensor_type;location;lat;lon;timestamp;temperature;humidity
19868;DHT22;10096;51.112;6.776;2022-09-11T00:02:18;16.30;99.90
19868;DHT22;10096;51.112;6.776;2022-09-11T00:04:47;16.70;99.90
19868;DHT22;10096;51.112;6.776;2022-09-11T00:07:15;16.60;99.90
19868;DHT22;10096;51.112;6.776;2022-09-11T00:09:42;16.60;99.90
19868;DHT22;10096;51.112;6.776;2022-09-11T00:12:09;16.70;99.90
19868;DHT22;10096;51.112;6.776;2022-09-11T00:14:37;16.50;99.90
19868;DHT22;10096;51.112;6.776;2022-09-11T00:17:05;16.50;99.90
19868;DHT22;10096;51.112;6.776;2022-09-11T00:19:32;16.40;99.90
19868;DHT22;10096;51.112;6.776;2022-09-11T00:22:02;16.20;99.90
19868;DHT22;10096;51.112;6.776;2022-09-11T00:24:30;16.10;99.90
19868;DHT22;10096;51.112;6.776;2022-09-11T00:26:57;16.50;99.90
19868;DHT22;10096;51.112;6.776;2022-09-11T00:29:25;16.30;99.90
19868;DHT22;10096;51.112;6.776;2022-09-11T00:31:53;16.40;99.90
19868;DHT22;10096;51.112;6.776;2022-09-11T00:34:20;16.50;99.90
19868;DHT22;10096;51.112;6.776;2022-09-11T00:36:48;16.40;99.90
19868;DHT22;10096;51.112;6.776;2022-09-11T00:39:18;16.50;99.90
19868;DHT22;10096;51.112;6.776;2022-09-11T00:41:46;16.50;99.90
19868;DHT22;10096;51.112;6.776;2022-09-11T00:47:18;16.30;99.90
19868;DHT22;10096;51.112;6.776;2022-09-11T00:49:47;16.50;99.90
19868;DHT22;10096;51.112;6.776;2022-09-11T00:52:19;15.90;99.90
19868;DHT22;10096;51.112;6.776;2022-09-11T00:54:54;16.40;99.90
19868;DHT22;10096;51.112;6.776;2022-09-11T00:57:26;16.20;99.90
19868;DHT22;10096;51.112;6.776;2022-09-11T00:59:54;16.50;99.90
19868;DHT22;10096;51.112;6.776;2022-09-11T01:02:23;16.10;99.90
19868;DHT22;10096;51.112;6.776;2022-09-11T01:04:51;16.00;99.90
19868;DHT22;10096;51.112;6.776;2022-09-11T01:07:20;16.10;99.90
19868;DHT22;10096;51.112;6.776;2022-09-11T01:09:50;16.20;99.90
19868;DHT22;10096;51.112;6.776;2022-09-11T01:12:22;16.20;99.90
19868;DHT22;10096;51.112;6.776;2022-09-11T01:14:56;16.30;99.90
19868;DHT22;10096;51.112;6.776;2022-09-11T01:17:28;16.20;99.90
19868;DHT22;10096;51.112;6.776;2022-09-11T01:20:24;16.00;99.90
19868;DHT22;10096;51.112;6.776;2022-09-11T01:26:12;16.20;99.90
19868;DHT22;10096;51.112;6.776;2022-09-11T01:28:51;16.20;99.90
19868;DHT22;10096;51.112;6.776;2022-09-11T01:31:24;16.10;99.90
19868;DHT22;10096;51.112;6.776;2022-09-11T01:33:56;16.10;99.90
19868;DHT22;10096;51.112;6.776;2022-09-11T01:36:29;16.20;99.90
19868;DHT22;10096;51.112;6.776;2022-09-11T01:39:01;16.20;99.90
19868;DHT22;10096;51.112;6.776;2022-09-11T01:41:31;16.40;99.90
19868;DHT22;10096;51.112;6.776;2022-09-11T01:44:05;16.60;99.90
19868;DHT22;10096;51.112;6.776;2022-09-11T01:46:36;16.50;99.90
19868;DHT22;10096;51.112;6.776;2022-09-11T01:49:09;16.60;99.90
19868;DHT22;10096;51.112;6.776;2022-09-11T01:51:39;16.70;99.90
19868;DHT22;10096;51.112;6.776;2022-09-11T01:54:09;16.80;99.90
19868;DHT22;10096;51.112;6.776;2022-09-11T01:56:40;16.90;99.90
19868;DHT22;10096;51.112;6.776;2022-09-11T01:59:13;17.00;98.30
19868;DHT22;10096;51.112;6.776;2022-09-11T02:01:45;16.90;18.30
19868;DHT22;10096;51.112;6.776;2022-09-11T02:04:18;16.60;1.00
19868;DHT22;10096;51.112;6.776;2022-09-11T02:06:49;17.20;1.00
19868;DHT22;10096;51.112;6.776;2022-09-11T02:09:21;17.10;1.00
19868;DHT22;10096;51.112;6.776;2022-09-11T02:11:52;16.90;1.00
19868;DHT22;10096;51.112;6.776;2022-09-11T02:14:26;17.30;1.00
19868;DHT22;10096;51.112;6.776;2022-09-11T02:17:02;17.10;1.00
19868;DHT22;10096;51.112;6.776;2022-09-11T02:19:33;17.20;1.00
19868;DHT22;10096;51.112;6.776;2022-09-11T02:22:00;17.20;1.00
19868;DHT22;10096;51.112;6.776;2022-09-11T02:24:27;17.20;1.00
19868;DHT22;10096;51.112;6.776;2022-09-11T02:26:57;17.30;1.00
19868;DHT22;10096;51.112;6.776;2022-09-11T02:29:27;17.30;1.00
19868;DHT22;10096;51.112;6.776;2022-09-11T02:31:54;17.20;99.90
19868;DHT22;10096;51.112;6.776;2022-09-11T02:34:26;17.10;99.90
19868;DHT22;10096;51.112;6.776;2022-09-11T02:37:12;17.10;99.90
19868;DHT22;10096;51.112;6.776;2022-09-11T02:39:58;17.00;99.90
19868;DHT22;10096;51.112;6.776;2022-09-11T02:42:43;17.00;99.90
19868;DHT22;10096;51.112;6.776;2022-09-11T02:45:22;17.20;99.90
19868;DHT22;10096;51.112;6.776;2022-09-11T02:48:05;17.30;99.90
19868;DHT22;10096;51.112;6.776;2022-09-11T02:50:40;17.40;99.90
19868;DHT22;10096;51.112;6.776;2022-09-11T02:53:13;17.30;99.90
19868;DHT22;10096;51.112;6.776;2022-09-11T02:55:48;17.20;99.90
19868;DHT22;10096;51.112;6.776;2022-09-11T02:58:25;17.20;99.90
19868;DHT22;10096;51.112;6.776;2022-09-11T03:00:56;17.30;99.90
19868;DHT22;10096;51.112;6.776;2022-09-11T03:03:24;17.20;99.90
19868;DHT22;10096;51.112;6.776;2022-09-11T03:05:51;17.30;99.90
19868;DHT22;10096;51.112;6.776;2022-09-11T03:08:18;17.20;99.90
19868;DHT22;10096;51.112;6.776;2022-09-11T03:10:46;17.40;99.90
19868;DHT22;10096;51.112;6.776;2022-09-11T03:13:14;17.00;99.90
19868;DHT22;10096;51.112;6.776;2022-09-11T03:15:42;17.30;99.90
19868;DHT22;10096;51.112;6.776;2022-09-11T03:18:10;17.30;99.90
19868;DHT22;10096;51.112;6.776;2022-09-11T03:20:43;17.30;99.90
19868;DHT22;10096;51.112;6.776;2022-09-11T03:23:11;17.30;99.90
19868;DHT22;10096;51.112;6.776;2022-09-11T03:25:39;17.40;99.90
19868;DHT22;10096;51.112;6.776;2022-09-11T03:28:07;17.30;99.90
19868;DHT22;10096;51.112;6.776;2022-09-11T03:30:34;17.10;99.90
19868;DHT22;10096;51.112;6.776;2022-09-11T03:33:01;17.40;99.90
19868;DHT22;10096;51.112;6.776;2022-09-11T03:35:30;17.10;99.90
19868;DHT22;10096;51.112;6.776;2022-09-11T03:37:57;17.30;99.90
19868;DHT22;10096;51.112;6.776;2022-09-11T03:40:25;17.30;99.90
19868;DHT22;10096;51.112;6.776;2022-09-11T03:42:52;17.10;99.90
19868;DHT22;10096;51.112;6.776;2022-09-11T03:45:19;17.20;99.90
19868;DHT22;10096;51.112;6.776;2022-09-11T03:47:46;17.30;99.90
19868;DHT22;10096;51.112;6.776;2022-09-11T03:50:13;17.10;99.90
19868;DHT22;10096;51.112;6.776;2022-09-11T03:52:42;17.10;99.90
19868;DHT22;10096;51.112;6.776;2022-09-11T03:55:09;17.10;99.90
19868;DHT22;10096;51.112;6.776;2022-09-11T03:57:36;17.20;99.90
19868;DHT22;10096;51.112;6.776;2022-09-11T04:00:06;17.10;99.90
19868;DHT22;10096;51.112;6.776;2022-09-11T04:02:33;17.10;99.90
19868;DHT22;10096;51.112;6.776;2022-09-11T04:05:00;17.20;99.90
19868;DHT22;10096;51.112;6.776;2022-09-11T04:07:28;17.20;99.90
19868;DHT22;10096;51.112;6.776;2022-09-11T04:09:57;17.10;99.90
19868;DHT22;10096;51.112;6.776;2022-09-11T04:12:24;17.10;99.90
19868;DHT22;10096;51.112;6.776;2022-09-11T04:14:51;17.10;99.90
19868;DHT22;10096;51.112;6.776;2022-09-11T04:17:18;17.20;99.90
19868;DHT22;10096;51.112;6.776;2022-09-11T04:19:46;17.10;99.90
19868;DHT22;10096;51.112;6.776;2022-09-11T04:22:13;17.20;99.90
19868;DHT22;10096;51.112;6.776;2022-09-11T04:24:40;17.20;99.90
19868;DHT22;10096;51.112;6.776;2022-09-11T04:27:08;17.10;99.90
19868;DHT22;10096;51.112;6.776;2022-09-11T04:29:37;17.10;99.90
19868;DHT22;10096;51.112;6.776;2022-09-11T04:32:04;17.20;99.90
19868;DHT22;10096;51.112;6.776;2022-09-11T04:34:31;17.20;99.90
19868;DHT22;10096;51.112;6.776;2022-09-11T04:36:58;17.20;99.90
19868;DHT22;10096;51.112;6.776;2022-09-11T04:39:25;17.20;99.90
19868;DHT22;10096;51.112;6.776;2022-09-11T04:41:52;17.10;99.90
19868;DHT22;10096;51.112;6.776;2022-09-11T04:44:22;16.90;99.90
19868;DHT22;10096;51.112;6.776;2022-09-11T04:46:51;17.10;99.90
19868;DHT22;10096;51.112;6.776;2022-09-11T04:49:18;17.00;99.90
19868;DHT22;10096;51.112;6.776;2022-09-11T04:51:45;17.10;99.90
19868;DHT22;10096;51.112;6.776;2022-09-11T04:54:13;17.00;99.90
19868;DHT22;10096;51.112;6.776;2022-09-11T04:56:41;17.10;99.90
19868;DHT22;10096;51.112;6.776;2022-09-11T04:59:12;17.10;99.90
19868;DHT22;10096;51.112;6.776;2022-09-11T05:01:42;17.20;99.90
19868;DHT22;10096;51.112;6.776;2022-09-11T05:04:11;17.10;99.90
19868;DHT22;10096;51.112;6.776;2022-09-11T05:06:38;17.10;99.90
19868;DHT22;10096;51.112;6.776;2022-09-11T05:09:07;17.20;99.90
19868;DHT22;10096;51.112;6.776;2022-09-11T05:11:35;17.00;99.90
19868;DHT22;10096;51.112;6.776;2022-09-11T05:14:04;17.00;99.90
19868;DHT22;10096;51.112;6.776;2022-09-11T05:16:33;16.90;99.90
19868;DHT22;10096;51.112;6.776;2022-09-11T05:19:02;17.00;99.90
19868;DHT22;10096;51.112;6.776;2022-09-11T05:21:30;17.00;99.90
19868;DHT22;10096;51.112;6.776;2022-09-11T05:23:59;17.00;99.90
19868;DHT22;10096;51.112;6.776;2022-09-11T05:26:28;17.00;99.90
19868;DHT22;10096;51.112;6.776;2022-09-11T05:28:56;17.00;99.90
19868;DHT22;10096;51.112;6.776;2022-09-11T05:31:24;16.70;99.90
19868;DHT22;10096;51.112;6.776;2022-09-11T05:33:52;17.00;99.90
19868;DHT22;10096;51.112;6.776;2022-09-11T05:36:23;16.90;99.90
19868;DHT22;10096;51.112;6.776;2022-09-11T05:38:50;17.00;99.90
19868;DHT22;10096;51.112;6.776;2022-09-11T05:41:19;17.00;99.90
19868;DHT22;10096;51.112;6.776;2022-09-11T05:43:46;17.10;99.90
19868;DHT22;10096;51.112;6.776;2022-09-11T05:46:15;16.90;99.90
19868;DHT22;10096;51.112;6.776;2022-09-11T05:48:43;17.20;99.90
19868;DHT22;10096;51.112;6.776;2022-09-11T05:51:12;17.10;99.90
19868;DHT22;10096;51.112;6.776;2022-09-11T05:53:41;17.40;99.90
19868;DHT22;10096;51.112;6.776;2022-09-11T05:56:11;17.50;91.20
19868;DHT22;10096;51.112;6.776;2022-09-11T05:58:38;17.20;99.90
19868;DHT22;10096;51.112;6.776;2022-09-11T06:01:07;17.20;37.10
19868;DHT22;10096;51.112;6.776;2022-09-11T06:03:34;17.20;73.60
19868;DHT22;10096;51.112;6.776;2022-09-11T06:06:03;17.30;18.20
19868;DHT22;10096;51.112;6.776;2022-09-11T06:08:32;17.20;1.00
19868;DHT22;10096;51.112;6.776;2022-09-11T06:11:02;17.20;64.40
19868;DHT22;10096;51.112;6.776;2022-09-11T06:13:33;17.30;1.30
19868;DHT22;10096;51.112;6.776;2022-09-11T06:16:00;17.40;1.00
19868;DHT22;10096;51.112;6.776;2022-09-11T06:18:28;17.40;1.00
19868;DHT22;10096;51.112;6.776;2022-09-11T06:20:56;17.40;1.00
19868;DHT22;10096;51.112;6.776;2022-09-11T06:23:23;17.40;1.00
19868;DHT22;10096;51.112;6.776;2022-09-11T06:25:51;17.60;1.00
19868;DHT22;10096;51.112;6.776;2022-09-11T06:28:20;17.60;1.00
19868;DHT22;10096;51.112;6.776;2022-09-11T06:30:49;17.50;1.00
19868;DHT22;10096;51.112;6.776;2022-09-11T06:33:16;17.70;1.00
19868;DHT22;10096;51.112;6.776;2022-09-11T06:35:54;17.60;1.00
19868;DHT22;10096;51.112;6.776;2022-09-11T06:38:22;17.60;1.00
19868;DHT22;10096;51.112;6.776;2022-09-11T06:40:49;17.50;1.00
19868;DHT22;10096;51.112;6.776;2022-09-11T06:43:16;17.70;1.00
19868;DHT22;10096;51.112;6.776;2022-09-11T06:45:46;17.70;99.90
19868;DHT22;10096;51.112;6.776;2022-09-11T06:48:13;18.00;1.00
19868;DHT22;10096;51.112;6.776;2022-09-11T06:50:40;17.70;99.90
19868;DHT22;10096;51.112;6.776;2022-09-11T06:53:07;17.70;1.00
19868;DHT22;10096;51.112;6.776;2022-09-11T06:55:35;17.70;1.00
19868;DHT22;10096;51.112;6.776;2022-09-11T06:58:01;17.70;1.00
19868;DHT22;10096;51.112;6.776;2022-09-11T07:00:29;17.80;99.90
19868;DHT22;10096;51.112;6.776;2022-09-11T07:02:57;17.90;99.90
19868;DHT22;10096;51.112;6.776;2022-09-11T07:05:24;17.70;99.90
19868;DHT22;10096;51.112;6.776;2022-09-11T07:07:52;17.70;99.90
19868;DHT22;10096;51.112;6.776;2022-09-11T07:10:20;17.80;99.90
19868;DHT22;10096;51.112;6.776;2022-09-11T07:12:48;18.10;99.90
19868;DHT22;10096;51.112;6.776;2022-09-11T07:15:17;17.80;99.90
19868;DHT22;10096;51.112;6.776;2022-09-11T07:17:46;17.80;99.90
19868;DHT22;10096;51.112;6.776;2022-09-11T07:20:16;17.80;1.00
19868;DHT22;10096;51.112;6.776;2022-09-11T07:22:43;17.70;1.00
19868;DHT22;10096;51.112;6.776;2022-09-11T07:25:11;17.60;1.00
19868;DHT22;10096;51.112;6.776;2022-09-11T07:27:39;17.90;1.00
19868;DHT22;10096;51.112;6.776;2022-09-11T07:30:07;17.70;1.00
19868;DHT22;10096;51.112;6.776;2022-09-11T07:32:34;17.60;1.00
19868;DHT22;10096;51.112;6.776;2022-09-11T07:35:03;17.50;1.00
19868;DHT22;10096;51.112;6.776;2022-09-11T07:37:31;17.50;1.00
19868;DHT22;10096;51.112;6.776;2022-09-11T07:39:59;17.50;1.00
19868;DHT22;10096;51.112;6.776;2022-09-11T07:42:33;17.70;1.00
19868;DHT22;10096;51.112;6.776;2022-09-11T07:45:00;17.70;1.00
19868;DHT22;10096;51.112;6.776;2022-09-11T07:47:27;17.50;1.00
19868;DHT22;10096;51.112;6.776;2022-09-11T07:49:54;17.40;1.00
19868;DHT22;10096;51.112;6.776;2022-09-11T07:52:21;17.50;1.00
19868;DHT22;10096;51.112;6.776;2022-09-11T07:54:50;17.50;1.00
19868;DHT22;10096;51.112;6.776;2022-09-11T07:57:17;17.50;1.00
19868;DHT22;10096;51.112;6.776;2022-09-11T07:59:46;17.70;1.00
19868;DHT22;10096;51.112;6.776;2022-09-11T08:02:13;17.80;1.00
19868;DHT22;10096;51.112;6.776;2022-09-11T08:04:42;17.90;99.90
19868;DHT22;10096;51.112;6.776;2022-09-11T08:07:09;18.00;99.90
19868;DHT22;10096;51.112;6.776;2022-09-11T08:09:36;18.00;99.90
19868;DHT22;10096;51.112;6.776;2022-09-11T08:12:05;18.00;99.90
19868;DHT22;10096;51.112;6.776;2022-09-11T08:14:32;17.90;99.90
19868;DHT22;10096;51.112;6.776;2022-09-11T08:16:59;17.90;99.90
19868;DHT22;10096;51.112;6.776;2022-09-11T08:19:26;17.80;99.90
19868;DHT22;10096;51.112;6.776;2022-09-11T08:21:53;17.70;99.90
19868;DHT22;10096;51.112;6.776;2022-09-11T08:24:21;17.90;99.90
19868;DHT22;10096;51.112;6.776;2022-09-11T08:26:48;18.10;99.90
19868;DHT22;10096;51.112;6.776;2022-09-11T08:29:20;17.90;99.90
19868;DHT22;10096;51.112;6.776;2022-09-11T08:31:49;18.10;99.90
19868;DHT22;10096;51.112;6.776;2022-09-11T08:34:16;18.20;99.90
19868;DHT22;10096;51.112;6.776;2022-09-11T08:36:46;18.30;99.90
19868;DHT22;10096;51.112;6.776;2022-09-11T08:39:14;18.40;99.90
19868;DHT22;10096;51.112;6.776;2022-09-11T08:41:45;18.60;41.60
19868;DHT22;10096;51.112;6.776;2022-09-11T08:44:18;18.70;1.00
19868;DHT22;10096;51.112;6.776;2022-09-11T08:46:52;18.90;1.00
19868;DHT22;10096;51.112;6.776;2022-09-11T08:49:24;19.00;1.00
19868;DHT22;10096;51.112;6.776;2022-09-11T08:51:54;18.90;1.00
19868;DHT22;10096;51.112;6.776;2022-09-11T08:54:25;18.90;1.00
19868;DHT22;10096;51.112;6.776;2022-09-11T08:57:04;18.70;1.00
19868;DHT22;10096;51.112;6.776;2022-09-11T08:59:41;18.70;1.00
19868;DHT22;10096;51.112;6.776;2022-09-11T09:02:23;18.70;1.00
19868;DHT22;10096;51.112;6.776;2022-09-11T09:05:12;18.80;1.00
19868;DHT22;10096;51.112;6.776;2022-09-11T09:07:53;19.10;1.00
19868;DHT22;10096;51.112;6.776;2022-09-11T09:10:36;18.90;1.00
19868;DHT22;10096;51.112;6.776;2022-09-11T09:13:13;18.80;1.00
19868;DHT22;10096;51.112;6.776;2022-09-11T09:15:54;19.00;1.00
19868;DHT22;10096;51.112;6.776;2022-09-11T09:18:32;18.70;1.00
19868;DHT22;10096;51.112;6.776;2022-09-11T09:21:03;18.90;1.00
19868;DHT22;10096;51.112;6.776;2022-09-11T09:23:36;18.80;1.00
19868;DHT22;10096;51.112;6.776;2022-09-11T09:26:11;18.90;1.00
19868;DHT22;10096;51.112;6.776;2022-09-11T09:28:45;18.80;1.00
19868;DHT22;10096;51.112;6.776;2022-09-11T09:31:18;18.80;1.00
19868;DHT22;10096;51.112;6.776;2022-09-11T09:33:52;18.80;1.00
19868;DHT22;10096;51.112;6.776;2022-09-11T09:36:25;18.80;1.00
19868;DHT22;10096;51.112;6.776;2022-09-11T09:38:56;19.00;1.00
19868;DHT22;10096;51.112;6.776;2022-09-11T09:44:53;19.40;99.90
19868;DHT22;10096;51.112;6.776;2022-09-11T09:47:22;19.50;99.90
19868;DHT22;10096;51.112;6.776;2022-09-11T09:49:52;19.60;99.90
19868;DHT22;10096;51.112;6.776;2022-09-11T09:52:23;19.80;99.90
19868;DHT22;10096;51.112;6.776;2022-09-11T09:54:54;19.60;99.90
19868;DHT22;10096;51.112;6.776;2022-09-11T09:57:25;19.60;99.90
19868;DHT22;10096;51.112;6.776;2022-09-11T09:59:59;19.60;99.90
19868;DHT22;10096;51.112;6.776;2022-09-11T10:02:37;19.50;99.90
19868;DHT22;10096;51.112;6.776;2022-09-11T10:05:23;19.50;99.90
19868;DHT22;10096;51.112;6.776;2022-09-11T10:07:52;19.60;99.90
19868;DHT22;10096;51.112;6.776;2022-09-11T10:10:28;19.80;99.90
19868;DHT22;10096;51.112;6.776;2022-09-11T10:12:57;19.90;99.90
19868;DHT22;10096;51.112;6.776;2022-09-11T10:15:26;19.90;99.90
19868;DHT22;10096;51.112;6.776;2022-09-11T10:18:22;20.10;99.90
19868;DHT22;10096;51.112;6.776;2022-09-11T10:20:50;20.40;99.90
19868;DHT22;10096;51.112;6.776;2022-09-11T10:23:24;20.50;99.90
19868;DHT22;10096;51.112;6.776;2022-09-11T10:25:54;20.70;99.90
19868;DHT22;10096;51.112;6.776;2022-09-11T10:28:26;20.70;99.90
19868;DHT22;10096;51.112;6.776;2022-09-11T10:30:57;20.90;99.90
19868;DHT22;10096;51.112;6.776;2022-09-11T10:33:29;21.00;99.90
19868;DHT22;10096;51.112;6.776;2022-09-11T10:36:02;21.10;99.90
19868;DHT22;10096;51.112;6.776;2022-09-11T10:38:30;21.60;99.90
19868;DHT22;10096;51.112;6.776;2022-09-11T10:41:07;22.00;99.70
19868;DHT22;10096;51.112;6.776;2022-09-11T10:43:41;22.10;79.40
19868;DHT22;10096;51.112;6.776;2022-09-11T10:46:29;22.60;82.30
19868;DHT22;10096;51.112;6.776;2022-09-11T10:48:59;22.90;1.00
19868;DHT22;10096;51.112;6.776;2022-09-11T10:51:36;23.00;1.00
19868;DHT22;10096;51.112;6.776;2022-09-11T10:54:11;23.30;1.00
19868;DHT22;10096;51.112;6.776;2022-09-11T10:56:55;23.30;1.00
19868;DHT22;10096;51.112;6.776;2022-09-11T10:59:30;23.40;1.00
19868;DHT22;10096;51.112;6.776;2022-09-11T11:02:01;23.60;1.00
19868;DHT22;10096;51.112;6.776;2022-09-11T11:04:31;23.40;99.90
19868;DHT22;10096;51.112;6.776;2022-09-11T11:07:09;23.30;1.00
19868;DHT22;10096;51.112;6.776;2022-09-11T11:09:52;23.50;25.00
19868;DHT22;10096;51.112;6.776;2022-09-11T11:12:32;23.60;1.00
19868;DHT22;10096;51.112;6.776;2022-09-11T11:15:15;23.60;1.00
19868;DHT22;10096;51.112;6.776;2022-09-11T11:18:09;23.60;1.00
19868;DHT22;10096;51.112;6.776;2022-09-11T11:20:44;24.10;1.00
19868;DHT22;10096;51.112;6.776;2022-09-11T11:26:32;23.90;1.00
19868;DHT22;10096;51.112;6.776;2022-09-11T11:29:30;23.80;1.00
19868;DHT22;10096;51.112;6.776;2022-09-11T11:32:24;23.70;1.00
19868;DHT22;10096;51.112;6.776;2022-09-11T11:35:11;23.40;1.00
19868;DHT22;10096;51.112;6.776;2022-09-11T11:37:45;23.30;1.00
19868;DHT22;10096;51.112;6.776;2022-09-11T11:40:20;23.20;1.00
19868;DHT22;10096;51.112;6.776;2022-09-11T11:42:51;23.20;1.00
19868;DHT22;10096;51.112;6.776;2022-09-11T11:45:25;23.20;1.00
19868;DHT22;10096;51.112;6.776;2022-09-11T11:47:58;23.00;1.00
19868;DHT22;10096;51.112;6.776;2022-09-11T11:50:28;22.90;1.00
19868;DHT22;10096;51.112;6.776;2022-09-11T11:53:03;22.90;1.00
19868;DHT22;10096;51.112;6.776;2022-09-11T11:55:39;22.70;1.00
19868;DHT22;10096;51.112;6.776;2022-09-11T11:58:16;22.70;1.00
19868;DHT22;10096;51.112;6.776;2022-09-11T12:00:49;22.70;1.00
19868;DHT22;10096;51.112;6.776;2022-09-11T12:03:23;22.60;1.00
19868;DHT22;10096;51.112;6.776;2022-09-11T12:05:51;22.70;1.00
19868;DHT22;10096;51.112;6.776;2022-09-11T12:08:19;22.70;1.00
19868;DHT22;10096;51.112;6.776;2022-09-11T12:10:53;22.60;1.00
19868;DHT22;10096;51.112;6.776;2022-09-11T12:13:28;22.60;1.00
19868;DHT22;10096;51.112;6.776;2022-09-11T12:16:04;22.30;1.00
19868;DHT22;10096;51.112;6.776;2022-09-11T12:18:32;22.30;1.00
19868;DHT22;10096;51.112;6.776;2022-09-11T12:24:11;22.10;1.00
19868;DHT22;10096;51.112;6.776;2022-09-11T12:26:40;22.30;1.00
19868;DHT22;10096;51.112;6.776;2022-09-11T12:32:41;22.10;1.00
19868;DHT22;10096;51.112;6.776;2022-09-11T12:35:27;22.70;1.00
19868;DHT22;10096;51.112;6.776;2022-09-11T12:38:16;22.70;1.00
19868;DHT22;10096;51.112;6.776;2022-09-11T12:40:49;22.10;1.00
19868;DHT22;10096;51.112;6.776;2022-09-11T12:43:44;22.40;1.00
19868;DHT22;10096;51.112;6.776;2022-09-11T12:49:27;22.30;1.00
19868;DHT22;10096;51.112;6.776;2022-09-11T12:51:56;22.20;1.00
19868;DHT22;10096;51.112;6.776;2022-09-11T12:54:26;22.30;1.00
19868;DHT22;10096;51.112;6.776;2022-09-11T12:57:03;22.40;1.00
19868;DHT22;10096;51.112;6.776;2022-09-11T12:59:32;22.30;1.00
19868;DHT22;10096;51.112;6.776;2022-09-11T13:02:02;22.20;1.00
19868;DHT22;10096;51.112;6.776;2022-09-11T13:04:32;22.10;1.00
19868;DHT22;10096;51.112;6.776;2022-09-11T13:07:01;22.10;1.00
19868;DHT22;10096;51.112;6.776;2022-09-11T13:09:33;22.20;1.00
19868;DHT22;10096;51.112;6.776;2022-09-11T13:12:43;22.10;1.00
19868;DHT22;10096;51.112;6.776;2022-09-11T13:15:29;22.00;1.00
19868;DHT22;10096;51.112;6.776;2022-09-11T13:17:56;22.00;1.00
19868;DHT22;10096;51.112;6.776;2022-09-11T13:20:28;21.90;1.00
19868;DHT22;10096;51.112;6.776;2022-09-11T13:23:11;21.80;1.00
19868;DHT22;10096;51.112;6.776;2022-09-11T13:25:42;21.80;1.00
19868;DHT22;10096;51.112;6.776;2022-09-11T13:28:12;21.80;1.00
19868;DHT22;10096;51.112;6.776;2022-09-11T13:30:52;21.90;1.00
19868;DHT22;10096;51.112;6.776;2022-09-11T13:33:22;21.70;1.00
19868;DHT22;10096;51.112;6.776;2022-09-11T13:35:54;21.70;1.00
19868;DHT22;10096;51.112;6.776;2022-09-11T13:38:24;21.60;1.00
19868;DHT22;10096;51.112;6.776;2022-09-11T13:40:55;21.50;1.00
19868;DHT22;10096;51.112;6.776;2022-09-11T13:43:26;21.60;1.00
19868;DHT22;10096;51.112;6.776;2022-09-11T13:46:20;21.90;1.00
19868;DHT22;10096;51.112;6.776;2022-09-11T13:48:54;22.00;1.00
19868;DHT22;10096;51.112;6.776;2022-09-11T13:51:26;22.30;1.00
19868;DHT22;10096;51.112;6.776;2022-09-11T13:54:02;22.20;1.00
19868;DHT22;10096;51.112;6.776;2022-09-11T13:56:40;22.30;1.00
19868;DHT22;10096;51.112;6.776;2022-09-11T13:59:36;22.40;1.00
19868;DHT22;10096;51.112;6.776;2022-09-11T14:02:13;22.50;1.00
19868;DHT22;10096;51.112;6.776;2022-09-11T14:04:43;22.50;1.00
19868;DHT22;10096;51.112;6.776;2022-09-11T14:07:25;22.40;1.00
19868;DHT22;10096;51.112;6.776;2022-09-11T14:09:58;22.30;1.00
19868;DHT22;10096;51.112;6.776;2022-09-11T14:12:29;22.20;1.00
19868;DHT22;10096;51.112;6.776;2022-09-11T14:14:59;22.10;1.00
19868;DHT22;10096;51.112;6.776;2022-09-11T14:17:28;22.10;1.00
19868;DHT22;10096;51.112;6.776;2022-09-11T14:19:59;21.90;1.00
19868;DHT22;10096;51.112;6.776;2022-09-11T14:22:29;21.90;1.00
19868;DHT22;10096;51.112;6.776;2022-09-11T14:25:03;22.20;1.00
19868;DHT22;10096;51.112;6.776;2022-09-11T14:27:37;21.90;1.00
19868;DHT22;10096;51.112;6.776;2022-09-11T14:30:24;22.00;1.00
19868;DHT22;10096;51.112;6.776;2022-09-11T14:33:23;22.00;1.00
19868;DHT22;10096;51.112;6.776;2022-09-11T14:35:52;22.00;1.00
19868;DHT22;10096;51.112;6.776;2022-09-11T14:38:25;22.00;1.00
19868;DHT22;10096;51.112;6.776;2022-09-11T14:40:57;22.00;1.00
19868;DHT22;10096;51.112;6.776;2022-09-11T14:43:27;22.00;1.00
19868;DHT22;10096;51.112;6.776;2022-09-11T14:45:57;22.10;1.00
19868;DHT22;10096;51.112;6.776;2022-09-11T14:48:25;22.00;1.00
19868;DHT22;10096;51.112;6.776;2022-09-11T14:50:52;22.10;1.00
19868;DHT22;10096;51.112;6.776;2022-09-11T14:53:26;22.10;1.00
19868;DHT22;10096;51.112;6.776;2022-09-11T14:55:56;22.20;1.00
19868;DHT22;10096;51.112;6.776;2022-09-11T14:58:24;22.00;1.00
19868;DHT22;10096;51.112;6.776;2022-09-11T15:00:51;22.10;1.00
19868;DHT22;10096;51.112;6.776;2022-09-11T15:03:18;22.30;1.00
19868;DHT22;10096;51.112;6.776;2022-09-11T15:05:48;22.10;1.00
19868;DHT22;10096;51.112;6.776;2022-09-11T15:08:16;22.00;1.00
19868;DHT22;10096;51.112;6.776;2022-09-11T15:10:46;22.00;1.00
19868;DHT22;10096;51.112;6.776;2022-09-11T15:13:13;22.00;1.00
19868;DHT22;10096;51.112;6.776;2022-09-11T15:15:40;22.00;1.00
19868;DHT22;10096;51.112;6.776;2022-09-11T15:18:07;22.10;1.00
19868;DHT22;10096;51.112;6.776;2022-09-11T15:20:35;22.10;1.00
19868;DHT22;10096;51.112;6.776;2022-09-11T15:23:02;22.10;1.00
19868;DHT22;10096;51.112;6.776;2022-09-11T15:25:29;22.20;1.00
19868;DHT22;10096;51.112;6.776;2022-09-11T15:27:58;22.20;1.00
19868;DHT22;10096;51.112;6.776;2022-09-11T15:30:26;22.20;1.00
19868;DHT22;10096;51.112;6.776;2022-09-11T15:32:55;22.00;1.00
19868;DHT22;10096;51.112;6.776;2022-09-11T15:35:22;22.00;1.00
19868;DHT22;10096;51.112;6.776;2022-09-11T15:37:49;22.10;1.00
19868;DHT22;10096;51.112;6.776;2022-09-11T15:40:18;21.90;1.00
19868;DHT22;10096;51.112;6.776;2022-09-11T15:42:45;21.90;1.00
19868;DHT22;10096;51.112;6.776;2022-09-11T15:45:16;21.90;1.00
19868;DHT22;10096;51.112;6.776;2022-09-11T15:47:43;21.90;1.00
19868;DHT22;10096;51.112;6.776;2022-09-11T15:50:10;21.90;1.00
19868;DHT22;10096;51.112;6.776;2022-09-11T15:52:42;21.90;1.00
19868;DHT22;10096;51.112;6.776;2022-09-11T15:55:09;21.90;1.00
19868;DHT22;10096;51.112;6.776;2022-09-11T15:57:36;21.90;1.00
19868;DHT22;10096;51.112;6.776;2022-09-11T16:00:04;22.00;1.00
19868;DHT22;10096;51.112;6.776;2022-09-11T16:02:33;21.90;1.00
19868;DHT22;10096;51.112;6.776;2022-09-11T16:05:02;21.90;1.00
19868;DHT22;10096;51.112;6.776;2022-09-11T16:07:29;21.90;1.00
19868;DHT22;10096;51.112;6.776;2022-09-11T16:09:56;21.80;1.00
19868;DHT22;10096;51.112;6.776;2022-09-11T16:12:23;21.80;1.00
19868;DHT22;10096;51.112;6.776;2022-09-11T16:14:50;21.80;1.00
19868;DHT22;10096;51.112;6.776;2022-09-11T16:17:17;21.90;1.00
19868;DHT22;10096;51.112;6.776;2022-09-11T16:19:47;21.80;1.00
19868;DHT22;10096;51.112;6.776;2022-09-11T16:22:14;21.80;1.00
19868;DHT22;10096;51.112;6.776;2022-09-11T16:24:40;21.80;1.00
19868;DHT22;10096;51.112;6.776;2022-09-11T16:27:09;21.80;1.00